<?xml version="1.0" encoding="UTF-8"?>
<gpx version="1.1" creator="https://www.youtrack.es" xsi:schemaLocation="http://www.topografix.com/GPX/1/1 http://www.topografix.com/GPX/1/1/gpx.xsd http://www.garmin.com/xmlschemas/GpxExtensions/v3 http://www.garmin.com/xmlschemas/GpxExtensionsv3.xsd http://www.garmin.com/xmlschemas/TrackPointExtension/v1 http://www.garmin.com/xmlschemas/TrackPointExtensionv1.xsd" xmlns:gpxtpx="http://www.garmin.com/xmlschemas/TrackPointExtension/v1" xmlns:gpxx="http://www.garmin.com/xmlschemas/GpxExtensions/v3" xmlns:xsi="http://www.w3.org/2001/XMLSchema-instance">
  <metadata>
    <link href="https://www.youtrack.es">
      <text>YouTrack.es</text>
    </link>
    <time>2026-05-08T08:29:51Z</time>
  </metadata>
  <trk>
    <src>https://www.youtrack.es</src>
    <link href="https://www.youtrack.es/ruta/13119-navarcles-sant-salvador-de-guardiola">
      <text>YouTrack.es</text>
    </link>
    <trkseg>
      <trkpt lat="41.747683" lon="1.905519">
        <ele>258.821</ele>
        <time>2020-01-11T08:01:54Z</time>
      </trkpt>
      <trkpt lat="41.748038" lon="1.90533">
        <ele>258.041</ele>
        <time>2020-01-11T08:02:04Z</time>
      </trkpt>
      <trkpt lat="41.747873" lon="1.904439">
        <ele>255.805</ele>
        <time>2020-01-11T08:02:16Z</time>
      </trkpt>
      <trkpt lat="41.748347" lon="1.904073">
        <ele>250.808</ele>
        <time>2020-01-11T08:02:27Z</time>
      </trkpt>
      <trkpt lat="41.748137" lon="1.902561">
        <ele>243.276</ele>
        <time>2020-01-11T08:02:52Z</time>
      </trkpt>
      <trkpt lat="41.748757" lon="1.902275">
        <ele>241.017</ele>
        <time>2020-01-11T08:03:09Z</time>
      </trkpt>
      <trkpt lat="41.748646" lon="1.901469">
        <ele>240.445</ele>
        <time>2020-01-11T08:03:24Z</time>
      </trkpt>
      <trkpt lat="41.748429" lon="1.901469">
        <ele>239.249</ele>
        <time>2020-01-11T08:03:32Z</time>
      </trkpt>
      <trkpt lat="41.74832" lon="1.900493">
        <ele>238.064</ele>
        <time>2020-01-11T08:03:49Z</time>
      </trkpt>
      <trkpt lat="41.748654" lon="1.899447">
        <ele>233.084</ele>
        <time>2020-01-11T08:04:06Z</time>
      </trkpt>
      <trkpt lat="41.748485" lon="1.899417">
        <ele>230.665</ele>
        <time>2020-01-11T08:04:10Z</time>
      </trkpt>
      <trkpt lat="41.746682" lon="1.900245">
        <ele>223.887</ele>
        <time>2020-01-11T08:04:49Z</time>
      </trkpt>
      <trkpt lat="41.746574" lon="1.899353">
        <ele>225.041</ele>
        <time>2020-01-11T08:05:10Z</time>
      </trkpt>
      <trkpt lat="41.747038" lon="1.898252">
        <ele>233.281</ele>
        <time>2020-01-11T08:05:46Z</time>
      </trkpt>
      <trkpt lat="41.746791" lon="1.897999">
        <ele>234.609</ele>
        <time>2020-01-11T08:05:58Z</time>
      </trkpt>
      <trkpt lat="41.746682" lon="1.897369">
        <ele>236.608</ele>
        <time>2020-01-11T08:06:17Z</time>
      </trkpt>
      <trkpt lat="41.745886" lon="1.89706">
        <ele>242.878</ele>
        <time>2020-01-11T08:06:49Z</time>
      </trkpt>
      <trkpt lat="41.745568" lon="1.896571">
        <ele>245.479</ele>
        <time>2020-01-11T08:07:09Z</time>
      </trkpt>
      <trkpt lat="41.746332" lon="1.896144">
        <ele>250.487</ele>
        <time>2020-01-11T08:07:42Z</time>
      </trkpt>
      <trkpt lat="41.74692" lon="1.896184">
        <ele>255.081</ele>
        <time>2020-01-11T08:08:04Z</time>
      </trkpt>
      <trkpt lat="41.747692" lon="1.895858">
        <ele>260.486</ele>
        <time>2020-01-11T08:08:36Z</time>
      </trkpt>
      <trkpt lat="41.748085" lon="1.894367">
        <ele>266.226</ele>
        <time>2020-01-11T08:09:19Z</time>
      </trkpt>
      <trkpt lat="41.747887" lon="1.894149">
        <ele>268.437</ele>
        <time>2020-01-11T08:09:31Z</time>
      </trkpt>
      <trkpt lat="41.746161" lon="1.89457">
        <ele>286.039</ele>
        <time>2020-01-11T08:10:46Z</time>
      </trkpt>
      <trkpt lat="41.74492" lon="1.893943">
        <ele>299.222</ele>
        <time>2020-01-11T08:11:42Z</time>
      </trkpt>
      <trkpt lat="41.744455" lon="1.893885">
        <ele>303.662</ele>
        <time>2020-01-11T08:12:02Z</time>
      </trkpt>
      <trkpt lat="41.744331" lon="1.893422">
        <ele>305.008</ele>
        <time>2020-01-11T08:12:16Z</time>
      </trkpt>
      <trkpt lat="41.744739" lon="1.891985">
        <ele>302.808</ele>
        <time>2020-01-11T08:12:45Z</time>
      </trkpt>
      <trkpt lat="41.745405" lon="1.892116">
        <ele>302.256</ele>
        <time>2020-01-11T08:13:01Z</time>
      </trkpt>
      <trkpt lat="41.745725" lon="1.891235">
        <ele>302.427</ele>
        <time>2020-01-11T08:13:19Z</time>
      </trkpt>
      <trkpt lat="41.746352" lon="1.890638">
        <ele>305.865</ele>
        <time>2020-01-11T08:13:42Z</time>
      </trkpt>
      <trkpt lat="41.746463" lon="1.889782">
        <ele>308.089</ele>
        <time>2020-01-11T08:14:01Z</time>
      </trkpt>
      <trkpt lat="41.74693" lon="1.888244">
        <ele>314.484</ele>
        <time>2020-01-11T08:14:39Z</time>
      </trkpt>
      <trkpt lat="41.746981" lon="1.887237">
        <ele>316.284</ele>
        <time>2020-01-11T08:15:01Z</time>
      </trkpt>
      <trkpt lat="41.747223" lon="1.886878">
        <ele>316.625</ele>
        <time>2020-01-11T08:15:13Z</time>
      </trkpt>
      <trkpt lat="41.747591" lon="1.88669">
        <ele>317.277</ele>
        <time>2020-01-11T08:15:28Z</time>
      </trkpt>
      <trkpt lat="41.746465" lon="1.885904">
        <ele>318.244</ele>
        <time>2020-01-11T08:16:04Z</time>
      </trkpt>
      <trkpt lat="41.745317" lon="1.885533">
        <ele>321.205</ele>
        <time>2020-01-11T08:16:37Z</time>
      </trkpt>
      <trkpt lat="41.743833" lon="1.884607">
        <ele>315.415</ele>
        <time>2020-01-11T08:17:08Z</time>
      </trkpt>
      <trkpt lat="41.745159" lon="1.882562">
        <ele>306.808</ele>
        <time>2020-01-11T08:17:46Z</time>
      </trkpt>
      <trkpt lat="41.745357" lon="1.881217">
        <ele>300.648</ele>
        <time>2020-01-11T08:18:02Z</time>
      </trkpt>
      <trkpt lat="41.745271" lon="1.881082">
        <ele>299.269</ele>
        <time>2020-01-11T08:18:05Z</time>
      </trkpt>
      <trkpt lat="41.744745" lon="1.88105">
        <ele>295.867</ele>
        <time>2020-01-11T08:18:12Z</time>
      </trkpt>
      <trkpt lat="41.744657" lon="1.881839">
        <ele>286.851</ele>
        <time>2020-01-11T08:18:20Z</time>
      </trkpt>
      <trkpt lat="41.744342" lon="1.882238">
        <ele>282.646</ele>
        <time>2020-01-11T08:18:29Z</time>
      </trkpt>
      <trkpt lat="41.74372" lon="1.881771">
        <ele>282.086</ele>
        <time>2020-01-11T08:18:39Z</time>
      </trkpt>
      <trkpt lat="41.743126" lon="1.880958">
        <ele>271.297</ele>
        <time>2020-01-11T08:18:49Z</time>
      </trkpt>
      <trkpt lat="41.742145" lon="1.880713">
        <ele>258.869</ele>
        <time>2020-01-11T08:19:03Z</time>
      </trkpt>
      <trkpt lat="41.741532" lon="1.879175">
        <ele>254.854</ele>
        <time>2020-01-11T08:19:23Z</time>
      </trkpt>
      <trkpt lat="41.741399" lon="1.877568">
        <ele>244.256</ele>
        <time>2020-01-11T08:19:42Z</time>
      </trkpt>
      <trkpt lat="41.741849" lon="1.877946">
        <ele>243.611</ele>
        <time>2020-01-11T08:20:06Z</time>
      </trkpt>
      <trkpt lat="41.742369" lon="1.877812">
        <ele>246.608</ele>
        <time>2020-01-11T08:20:18Z</time>
      </trkpt>
      <trkpt lat="41.743023" lon="1.877945">
        <ele>246.459</ele>
        <time>2020-01-11T08:20:30Z</time>
      </trkpt>
      <trkpt lat="41.742859" lon="1.876556">
        <ele>246.42</ele>
        <time>2020-01-11T08:20:49Z</time>
      </trkpt>
      <trkpt lat="41.741958" lon="1.875698">
        <ele>242.028</ele>
        <time>2020-01-11T08:21:03Z</time>
      </trkpt>
      <trkpt lat="41.742138" lon="1.875194">
        <ele>235.212</ele>
        <time>2020-01-11T08:21:11Z</time>
      </trkpt>
      <trkpt lat="41.74228" lon="1.875154">
        <ele>234.277</ele>
        <time>2020-01-11T08:21:14Z</time>
      </trkpt>
      <trkpt lat="41.742999" lon="1.875723">
        <ele>240.427</ele>
        <time>2020-01-11T08:21:37Z</time>
      </trkpt>
      <trkpt lat="41.744328" lon="1.875793">
        <ele>243.088</ele>
        <time>2020-01-11T08:22:08Z</time>
      </trkpt>
      <trkpt lat="41.74471" lon="1.875289">
        <ele>241.01</ele>
        <time>2020-01-11T08:22:19Z</time>
      </trkpt>
      <trkpt lat="41.745733" lon="1.87514">
        <ele>242.651</ele>
        <time>2020-01-11T08:22:42Z</time>
      </trkpt>
      <trkpt lat="41.74646" lon="1.874341">
        <ele>245.801</ele>
        <time>2020-01-11T08:23:05Z</time>
      </trkpt>
      <trkpt lat="41.746932" lon="1.874336">
        <ele>246.011</ele>
        <time>2020-01-11T08:23:16Z</time>
      </trkpt>
      <trkpt lat="41.747308" lon="1.873594">
        <ele>248.808</ele>
        <time>2020-01-11T08:23:38Z</time>
      </trkpt>
      <trkpt lat="41.744935" lon="1.872982">
        <ele>245.479</ele>
        <time>2020-01-11T08:24:24Z</time>
      </trkpt>
      <trkpt lat="41.744026" lon="1.87215">
        <ele>237.43</ele>
        <time>2020-01-11T08:24:37Z</time>
      </trkpt>
      <trkpt lat="41.742508" lon="1.872924">
        <ele>235.858</ele>
        <time>2020-01-11T08:25:08Z</time>
      </trkpt>
      <trkpt lat="41.741175" lon="1.872243">
        <ele>236.832</ele>
        <time>2020-01-11T08:25:38Z</time>
      </trkpt>
      <trkpt lat="41.739009" lon="1.871887">
        <ele>248.667</ele>
        <time>2020-01-11T08:26:40Z</time>
      </trkpt>
      <trkpt lat="41.737256" lon="1.87057">
        <ele>257.477</ele>
        <time>2020-01-11T08:27:32Z</time>
      </trkpt>
      <trkpt lat="41.736522" lon="1.870275">
        <ele>259.218</ele>
        <time>2020-01-11T08:27:51Z</time>
      </trkpt>
      <trkpt lat="41.735998" lon="1.869345">
        <ele>261.41</ele>
        <time>2020-01-11T08:28:13Z</time>
      </trkpt>
      <trkpt lat="41.734566" lon="1.867778">
        <ele>260.442</ele>
        <time>2020-01-11T08:28:51Z</time>
      </trkpt>
      <trkpt lat="41.734028" lon="1.865854">
        <ele>257.822</ele>
        <time>2020-01-11T08:29:19Z</time>
      </trkpt>
      <trkpt lat="41.733251" lon="1.865106">
        <ele>254.414</ele>
        <time>2020-01-11T08:29:36Z</time>
      </trkpt>
      <trkpt lat="41.732001" lon="1.864985">
        <ele>253.008</ele>
        <time>2020-01-11T08:29:57Z</time>
      </trkpt>
      <trkpt lat="41.73169" lon="1.864808">
        <ele>252.668</ele>
        <time>2020-01-11T08:30:03Z</time>
      </trkpt>
      <trkpt lat="41.731479" lon="1.864572">
        <ele>252.239</ele>
        <time>2020-01-11T08:30:08Z</time>
      </trkpt>
      <trkpt lat="41.73125" lon="1.863576">
        <ele>250.887</ele>
        <time>2020-01-11T08:30:23Z</time>
      </trkpt>
      <trkpt lat="41.730213" lon="1.86385">
        <ele>246.441</ele>
        <time>2020-01-11T08:30:44Z</time>
      </trkpt>
      <trkpt lat="41.72951" lon="1.863308">
        <ele>246.446</ele>
        <time>2020-01-11T08:31:01Z</time>
      </trkpt>
      <trkpt lat="41.728344" lon="1.863733">
        <ele>249.656</ele>
        <time>2020-01-11T08:31:34Z</time>
      </trkpt>
      <trkpt lat="41.72737" lon="1.863768">
        <ele>254.077</ele>
        <time>2020-01-11T08:31:59Z</time>
      </trkpt>
      <trkpt lat="41.726421" lon="1.863988">
        <ele>253.479</ele>
        <time>2020-01-11T08:32:21Z</time>
      </trkpt>
      <trkpt lat="41.724508" lon="1.863455">
        <ele>264.269</ele>
        <time>2020-01-11T08:33:14Z</time>
      </trkpt>
      <trkpt lat="41.721476" lon="1.863152">
        <ele>287.204</ele>
        <time>2020-01-11T08:34:47Z</time>
      </trkpt>
      <trkpt lat="41.72096" lon="1.862912">
        <ele>290.424</ele>
        <time>2020-01-11T08:35:02Z</time>
      </trkpt>
      <trkpt lat="41.71915" lon="1.861242">
        <ele>290.808</ele>
        <time>2020-01-11T08:35:54Z</time>
      </trkpt>
      <trkpt lat="41.718384" lon="1.860843">
        <ele>289.41</ele>
        <time>2020-01-11T08:36:11Z</time>
      </trkpt>
      <trkpt lat="41.717682" lon="1.859767">
        <ele>285.821</ele>
        <time>2020-01-11T08:36:29Z</time>
      </trkpt>
      <trkpt lat="41.717087" lon="1.859525">
        <ele>283.249</ele>
        <time>2020-01-11T08:36:40Z</time>
      </trkpt>
      <trkpt lat="41.716375" lon="1.859929">
        <ele>280.813</ele>
        <time>2020-01-11T08:36:52Z</time>
      </trkpt>
      <trkpt lat="41.714036" lon="1.857983">
        <ele>272.438</ele>
        <time>2020-01-11T08:37:49Z</time>
      </trkpt>
      <trkpt lat="41.712673" lon="1.857965">
        <ele>274.018</ele>
        <time>2020-01-11T08:38:32Z</time>
      </trkpt>
      <trkpt lat="41.711997" lon="1.857651">
        <ele>274.689</ele>
        <time>2020-01-11T08:38:52Z</time>
      </trkpt>
      <trkpt lat="41.709867" lon="1.857559">
        <ele>284.261</ele>
        <time>2020-01-11T08:39:55Z</time>
      </trkpt>
      <trkpt lat="41.708236" lon="1.857987">
        <ele>291.221</ele>
        <time>2020-01-11T08:40:43Z</time>
      </trkpt>
      <trkpt lat="41.707579" lon="1.858013">
        <ele>295.441</ele>
        <time>2020-01-11T08:41:03Z</time>
      </trkpt>
      <trkpt lat="41.707322" lon="1.85819">
        <ele>298.005</ele>
        <time>2020-01-11T08:41:13Z</time>
      </trkpt>
      <trkpt lat="41.706939" lon="1.857987">
        <ele>301.408</ele>
        <time>2020-01-11T08:41:26Z</time>
      </trkpt>
      <trkpt lat="41.705881" lon="1.85867">
        <ele>309.436</ele>
        <time>2020-01-11T08:42:03Z</time>
      </trkpt>
      <trkpt lat="41.705125" lon="1.858593">
        <ele>315.287</ele>
        <time>2020-01-11T08:42:27Z</time>
      </trkpt>
      <trkpt lat="41.704585" lon="1.858734">
        <ele>316.815</ele>
        <time>2020-01-11T08:42:41Z</time>
      </trkpt>
      <trkpt lat="41.703853" lon="1.859252">
        <ele>318.259</ele>
        <time>2020-01-11T08:43:04Z</time>
      </trkpt>
      <trkpt lat="41.703252" lon="1.859401">
        <ele>324.234</ele>
        <time>2020-01-11T08:43:26Z</time>
      </trkpt>
      <trkpt lat="41.702532" lon="1.859299">
        <ele>325.634</ele>
        <time>2020-01-11T08:43:44Z</time>
      </trkpt>
      <trkpt lat="41.702398" lon="1.859135">
        <ele>325.875</ele>
        <time>2020-01-11T08:43:49Z</time>
      </trkpt>
      <trkpt lat="41.702445" lon="1.858644">
        <ele>326.897</ele>
        <time>2020-01-11T08:43:59Z</time>
      </trkpt>
      <trkpt lat="41.702033" lon="1.85824">
        <ele>328.622</ele>
        <time>2020-01-11T08:44:14Z</time>
      </trkpt>
      <trkpt lat="41.701609" lon="1.858733">
        <ele>330.062</ele>
        <time>2020-01-11T08:44:28Z</time>
      </trkpt>
      <trkpt lat="41.700986" lon="1.85902">
        <ele>331.408</ele>
        <time>2020-01-11T08:44:44Z</time>
      </trkpt>
      <trkpt lat="41.70045" lon="1.858535">
        <ele>329.608</ele>
        <time>2020-01-11T08:44:54Z</time>
      </trkpt>
      <trkpt lat="41.700019" lon="1.858483">
        <ele>327.886</ele>
        <time>2020-01-11T08:45:00Z</time>
      </trkpt>
      <trkpt lat="41.699511" lon="1.859158">
        <ele>321.687</ele>
        <time>2020-01-11T08:45:12Z</time>
      </trkpt>
      <trkpt lat="41.698833" lon="1.859601">
        <ele>319.035</ele>
        <time>2020-01-11T08:45:23Z</time>
      </trkpt>
      <trkpt lat="41.698567" lon="1.859632">
        <ele>316.859</ele>
        <time>2020-01-11T08:45:28Z</time>
      </trkpt>
      <trkpt lat="41.699089" lon="1.859099">
        <ele>308.064</ele>
        <time>2020-01-11T08:45:42Z</time>
      </trkpt>
      <trkpt lat="41.699163" lon="1.85884">
        <ele>307.064</ele>
        <time>2020-01-11T08:45:45Z</time>
      </trkpt>
      <trkpt lat="41.698697" lon="1.85685">
        <ele>287.275</ele>
        <time>2020-01-11T08:46:07Z</time>
      </trkpt>
      <trkpt lat="41.69871" lon="1.855756">
        <ele>276.667</ele>
        <time>2020-01-11T08:46:20Z</time>
      </trkpt>
      <trkpt lat="41.698481" lon="1.854855">
        <ele>268.833</ele>
        <time>2020-01-11T08:46:31Z</time>
      </trkpt>
      <trkpt lat="41.69774" lon="1.854206">
        <ele>257.023</ele>
        <time>2020-01-11T08:46:46Z</time>
      </trkpt>
      <trkpt lat="41.697606" lon="1.853303">
        <ele>250.415</ele>
        <time>2020-01-11T08:47:09Z</time>
      </trkpt>
      <trkpt lat="41.697343" lon="1.852919">
        <ele>244.808</ele>
        <time>2020-01-11T08:47:17Z</time>
      </trkpt>
      <trkpt lat="41.697346" lon="1.852002">
        <ele>239.627</ele>
        <time>2020-01-11T08:47:27Z</time>
      </trkpt>
      <trkpt lat="41.697118" lon="1.851406">
        <ele>234.278</ele>
        <time>2020-01-11T08:47:35Z</time>
      </trkpt>
      <trkpt lat="41.69725" lon="1.850973">
        <ele>232.866</ele>
        <time>2020-01-11T08:47:42Z</time>
      </trkpt>
      <trkpt lat="41.697016" lon="1.849496">
        <ele>234.81</ele>
        <time>2020-01-11T08:48:12Z</time>
      </trkpt>
      <trkpt lat="41.695666" lon="1.849103">
        <ele>241.495</ele>
        <time>2020-01-11T08:48:53Z</time>
      </trkpt>
      <trkpt lat="41.695128" lon="1.848789">
        <ele>242.465</ele>
        <time>2020-01-11T08:49:08Z</time>
      </trkpt>
      <trkpt lat="41.69361" lon="1.846905">
        <ele>238.016</ele>
        <time>2020-01-11T08:49:51Z</time>
      </trkpt>
      <trkpt lat="41.693209" lon="1.846715">
        <ele>235.688</ele>
        <time>2020-01-11T08:49:57Z</time>
      </trkpt>
      <trkpt lat="41.693007" lon="1.846176">
        <ele>231.886</ele>
        <time>2020-01-11T08:50:04Z</time>
      </trkpt>
      <trkpt lat="41.690795" lon="1.844103">
        <ele>220.66</ele>
        <time>2020-01-11T08:50:52Z</time>
      </trkpt>
      <trkpt lat="41.690149" lon="1.842962">
        <ele>217.626</ele>
        <time>2020-01-11T08:51:12Z</time>
      </trkpt>
      <trkpt lat="41.688075" lon="1.842438">
        <ele>211.008</ele>
        <time>2020-01-11T08:51:49Z</time>
      </trkpt>
      <trkpt lat="41.686741" lon="1.84155">
        <ele>208.662</ele>
        <time>2020-01-11T08:52:11Z</time>
      </trkpt>
      <trkpt lat="41.684388" lon="1.840615">
        <ele>192.053</ele>
        <time>2020-01-11T08:52:44Z</time>
      </trkpt>
      <trkpt lat="41.684039" lon="1.84032">
        <ele>191.461</ele>
        <time>2020-01-11T08:52:59Z</time>
      </trkpt>
      <trkpt lat="41.683014" lon="1.840236">
        <ele>190.645</ele>
        <time>2020-01-11T08:53:21Z</time>
      </trkpt>
      <trkpt lat="41.682363" lon="1.840513">
        <ele>188.01</ele>
        <time>2020-01-11T08:53:32Z</time>
      </trkpt>
      <trkpt lat="41.682107" lon="1.840377">
        <ele>183.09</ele>
        <time>2020-01-11T08:53:40Z</time>
      </trkpt>
      <trkpt lat="41.681981" lon="1.840564">
        <ele>180.451</ele>
        <time>2020-01-11T08:53:45Z</time>
      </trkpt>
      <trkpt lat="41.681586" lon="1.84001">
        <ele>175.863</ele>
        <time>2020-01-11T08:53:57Z</time>
      </trkpt>
      <trkpt lat="41.681202" lon="1.839803">
        <ele>173.071</ele>
        <time>2020-01-11T08:54:03Z</time>
      </trkpt>
      <trkpt lat="41.681036" lon="1.839899">
        <ele>172.241</ele>
        <time>2020-01-11T08:54:06Z</time>
      </trkpt>
      <trkpt lat="41.680758" lon="1.840974">
        <ele>170.015</ele>
        <time>2020-01-11T08:54:21Z</time>
      </trkpt>
      <trkpt lat="41.680339" lon="1.841494">
        <ele>169.008</ele>
        <time>2020-01-11T08:54:31Z</time>
      </trkpt>
      <trkpt lat="41.680396" lon="1.844178">
        <ele>161.041</ele>
        <time>2020-01-11T08:55:00Z</time>
      </trkpt>
      <trkpt lat="41.679485" lon="1.845246">
        <ele>163.842</ele>
        <time>2020-01-11T08:55:30Z</time>
      </trkpt>
      <trkpt lat="41.679998" lon="1.845775">
        <ele>167.22</ele>
        <time>2020-01-11T08:55:49Z</time>
      </trkpt>
      <trkpt lat="41.680015" lon="1.845991">
        <ele>168.224</ele>
        <time>2020-01-11T08:55:54Z</time>
      </trkpt>
      <trkpt lat="41.679781" lon="1.846271">
        <ele>170.429</ele>
        <time>2020-01-11T08:56:04Z</time>
      </trkpt>
      <trkpt lat="41.678229" lon="1.845732">
        <ele>171.049</ele>
        <time>2020-01-11T08:56:38Z</time>
      </trkpt>
      <trkpt lat="41.676414" lon="1.84613">
        <ele>183.05</ele>
        <time>2020-01-11T08:57:37Z</time>
      </trkpt>
      <trkpt lat="41.675447" lon="1.845415">
        <ele>193.622</ele>
        <time>2020-01-11T08:58:13Z</time>
      </trkpt>
      <trkpt lat="41.675258" lon="1.844648">
        <ele>198.471</ele>
        <time>2020-01-11T08:58:33Z</time>
      </trkpt>
      <trkpt lat="41.675354" lon="1.843199">
        <ele>208.041</ele>
        <time>2020-01-11T08:59:14Z</time>
      </trkpt>
      <trkpt lat="41.675244" lon="1.842716">
        <ele>211.615</ele>
        <time>2020-01-11T08:59:29Z</time>
      </trkpt>
      <trkpt lat="41.673038" lon="1.83979">
        <ele>233.608</ele>
        <time>2020-01-11T09:01:15Z</time>
      </trkpt>
      <trkpt lat="41.673103" lon="1.839568">
        <ele>234.661</ele>
        <time>2020-01-11T09:01:21Z</time>
      </trkpt>
      <trkpt lat="41.673907" lon="1.839209">
        <ele>243.672</ele>
        <time>2020-01-11T09:01:55Z</time>
      </trkpt>
      <trkpt lat="41.675531" lon="1.839565">
        <ele>253.88</ele>
        <time>2020-01-11T09:02:51Z</time>
      </trkpt>
      <trkpt lat="41.676156" lon="1.839365">
        <ele>261.694</ele>
        <time>2020-01-11T09:03:20Z</time>
      </trkpt>
      <trkpt lat="41.675081" lon="1.837673">
        <ele>275.089</ele>
        <time>2020-01-11T09:04:30Z</time>
      </trkpt>
      <trkpt lat="41.674831" lon="1.837037">
        <ele>278.699</ele>
        <time>2020-01-11T09:04:51Z</time>
      </trkpt>
      <trkpt lat="41.674962" lon="1.835901">
        <ele>291.27</ele>
        <time>2020-01-11T09:05:40Z</time>
      </trkpt>
      <trkpt lat="41.674736" lon="1.835992">
        <ele>298.022</ele>
        <time>2020-01-11T09:06:03Z</time>
      </trkpt>
      <trkpt lat="41.674677" lon="1.835806">
        <ele>300.824</ele>
        <time>2020-01-11T09:06:14Z</time>
      </trkpt>
      <trkpt lat="41.674764" lon="1.835563">
        <ele>303.204</ele>
        <time>2020-01-11T09:06:27Z</time>
      </trkpt>
      <trkpt lat="41.675055" lon="1.835475">
        <ele>306.814</ele>
        <time>2020-01-11T09:06:45Z</time>
      </trkpt>
      <trkpt lat="41.675116" lon="1.835315">
        <ele>309.008</ele>
        <time>2020-01-11T09:06:53Z</time>
      </trkpt>
      <trkpt lat="41.674981" lon="1.834729">
        <ele>312.866</ele>
        <time>2020-01-11T09:07:13Z</time>
      </trkpt>
      <trkpt lat="41.675019" lon="1.833927">
        <ele>316.637</ele>
        <time>2020-01-11T09:07:38Z</time>
      </trkpt>
      <trkpt lat="41.674701" lon="1.833306">
        <ele>321.095</ele>
        <time>2020-01-11T09:07:58Z</time>
      </trkpt>
      <trkpt lat="41.674663" lon="1.832903">
        <ele>322.449</ele>
        <time>2020-01-11T09:08:08Z</time>
      </trkpt>
      <trkpt lat="41.674743" lon="1.832111">
        <ele>327.644</ele>
        <time>2020-01-11T09:08:33Z</time>
      </trkpt>
      <trkpt lat="41.675152" lon="1.831489">
        <ele>334.634</ele>
        <time>2020-01-11T09:09:03Z</time>
      </trkpt>
      <trkpt lat="41.675462" lon="1.829994">
        <ele>346.055</ele>
        <time>2020-01-11T09:09:57Z</time>
      </trkpt>
      <trkpt lat="41.675175" lon="1.828327">
        <ele>351.227</ele>
        <time>2020-01-11T09:10:39Z</time>
      </trkpt>
      <trkpt lat="41.675802" lon="1.827099">
        <ele>361.251</ele>
        <time>2020-01-11T09:11:22Z</time>
      </trkpt>
      <trkpt lat="41.675785" lon="1.826049">
        <ele>373.201</ele>
        <time>2020-01-11T09:12:09Z</time>
      </trkpt>
      <trkpt lat="41.675494" lon="1.825483">
        <ele>381.211</ele>
        <time>2020-01-11T09:12:43Z</time>
      </trkpt>
      <trkpt lat="41.676051" lon="1.824094">
        <ele>386.208</ele>
        <time>2020-01-11T09:13:20Z</time>
      </trkpt>
      <trkpt lat="41.676183" lon="1.822812">
        <ele>389.039</ele>
        <time>2020-01-11T09:13:44Z</time>
      </trkpt>
      <trkpt lat="41.676527" lon="1.822351">
        <ele>390.67</ele>
        <time>2020-01-11T09:13:58Z</time>
      </trkpt>
      <trkpt lat="41.676595" lon="1.821774">
        <ele>393.288</ele>
        <time>2020-01-11T09:14:13Z</time>
      </trkpt>
      <trkpt lat="41.67705" lon="1.820565">
        <ele>403.672</ele>
        <time>2020-01-11T09:14:59Z</time>
      </trkpt>
      <trkpt lat="41.67712" lon="1.821083">
        <ele>409.217</ele>
        <time>2020-01-11T09:15:20Z</time>
      </trkpt>
      <trkpt lat="41.676733" lon="1.823101">
        <ele>424.237</ele>
        <time>2020-01-11T09:16:33Z</time>
      </trkpt>
      <trkpt lat="41.676814" lon="1.823455">
        <ele>426.638</ele>
        <time>2020-01-11T09:16:46Z</time>
      </trkpt>
      <trkpt lat="41.67776" lon="1.823565">
        <ele>433.65</ele>
        <time>2020-01-11T09:17:32Z</time>
      </trkpt>
      <trkpt lat="41.678672" lon="1.823349">
        <ele>441.287</ele>
        <time>2020-01-11T09:18:09Z</time>
      </trkpt>
      <trkpt lat="41.679095" lon="1.82365">
        <ele>441.242</ele>
        <time>2020-01-11T09:18:18Z</time>
      </trkpt>
      <trkpt lat="41.68015" lon="1.823429">
        <ele>436.626</ele>
        <time>2020-01-11T09:18:29Z</time>
      </trkpt>
      <trkpt lat="41.680695" lon="1.823578">
        <ele>432.208</ele>
        <time>2020-01-11T09:18:34Z</time>
      </trkpt>
      <trkpt lat="41.680944" lon="1.823498">
        <ele>428.472</ele>
        <time>2020-01-11T09:18:37Z</time>
      </trkpt>
      <trkpt lat="41.681459" lon="1.822626">
        <ele>417.263</ele>
        <time>2020-01-11T09:18:48Z</time>
      </trkpt>
      <trkpt lat="41.68133" lon="1.821535">
        <ele>415.811</ele>
        <time>2020-01-11T09:19:02Z</time>
      </trkpt>
      <trkpt lat="41.681822" lon="1.820313">
        <ele>412.675</ele>
        <time>2020-01-11T09:19:19Z</time>
      </trkpt>
      <trkpt lat="41.682601" lon="1.81911">
        <ele>413.62</ele>
        <time>2020-01-11T09:19:48Z</time>
      </trkpt>
      <trkpt lat="41.683092" lon="1.818968">
        <ele>413.06</ele>
        <time>2020-01-11T09:19:58Z</time>
      </trkpt>
      <trkpt lat="41.684061" lon="1.819661">
        <ele>411.481</ele>
        <time>2020-01-11T09:20:18Z</time>
      </trkpt>
      <trkpt lat="41.684277" lon="1.819478">
        <ele>410.033</ele>
        <time>2020-01-11T09:20:24Z</time>
      </trkpt>
      <trkpt lat="41.684559" lon="1.817736">
        <ele>404.251</ele>
        <time>2020-01-11T09:20:42Z</time>
      </trkpt>
      <trkpt lat="41.684556" lon="1.816761">
        <ele>399.201</ele>
        <time>2020-01-11T09:20:51Z</time>
      </trkpt>
      <trkpt lat="41.684808" lon="1.816038">
        <ele>396.411</ele>
        <time>2020-01-11T09:20:58Z</time>
      </trkpt>
      <trkpt lat="41.68484" lon="1.814285">
        <ele>390.808</ele>
        <time>2020-01-11T09:21:18Z</time>
      </trkpt>
      <trkpt lat="41.685335" lon="1.81337">
        <ele>386.839</ele>
        <time>2020-01-11T09:21:29Z</time>
      </trkpt>
      <trkpt lat="41.685396" lon="1.811205">
        <ele>381.24</ele>
        <time>2020-01-11T09:21:55Z</time>
      </trkpt>
      <trkpt lat="41.684097" lon="1.809254">
        <ele>386.678</ele>
        <time>2020-01-11T09:22:36Z</time>
      </trkpt>
      <trkpt lat="41.684052" lon="1.808125">
        <ele>387.042</ele>
        <time>2020-01-11T09:22:55Z</time>
      </trkpt>
      <trkpt lat="41.683261" lon="1.807384">
        <ele>387.827</ele>
        <time>2020-01-11T09:23:14Z</time>
      </trkpt>
      <trkpt lat="41.683089" lon="1.807027">
        <ele>388.037</ele>
        <time>2020-01-11T09:23:19Z</time>
      </trkpt>
      <trkpt lat="41.683106" lon="1.806545">
        <ele>386.228</ele>
        <time>2020-01-11T09:23:25Z</time>
      </trkpt>
      <trkpt lat="41.683393" lon="1.805692">
        <ele>381.03</ele>
        <time>2020-01-11T09:23:33Z</time>
      </trkpt>
      <trkpt lat="41.683867" lon="1.805353">
        <ele>379.853</ele>
        <time>2020-01-11T09:23:43Z</time>
      </trkpt>
      <trkpt lat="41.683883" lon="1.804896">
        <ele>379.804</ele>
        <time>2020-01-11T09:23:50Z</time>
      </trkpt>
      <trkpt lat="41.683461" lon="1.804002">
        <ele>380.814</ele>
        <time>2020-01-11T09:24:04Z</time>
      </trkpt>
      <trkpt lat="41.682527" lon="1.802841">
        <ele>383.608</ele>
        <time>2020-01-11T09:24:29Z</time>
      </trkpt>
      <trkpt lat="41.682185" lon="1.798929">
        <ele>389.639</ele>
        <time>2020-01-11T09:25:32Z</time>
      </trkpt>
      <trkpt lat="41.681836" lon="1.798182">
        <ele>388.64</ele>
        <time>2020-01-11T09:25:41Z</time>
      </trkpt>
      <trkpt lat="41.681569" lon="1.797118">
        <ele>385.898</ele>
        <time>2020-01-11T09:25:51Z</time>
      </trkpt>
      <trkpt lat="41.681044" lon="1.796166">
        <ele>382.692</ele>
        <time>2020-01-11T09:26:03Z</time>
      </trkpt>
      <trkpt lat="41.680643" lon="1.794314">
        <ele>379.047</ele>
        <time>2020-01-11T09:26:21Z</time>
      </trkpt>
      <trkpt lat="41.680081" lon="1.792637">
        <ele>372.887</ele>
        <time>2020-01-11T09:26:39Z</time>
      </trkpt>
      <trkpt lat="41.679463" lon="1.79159">
        <ele>373.828</ele>
        <time>2020-01-11T09:26:59Z</time>
      </trkpt>
      <trkpt lat="41.679991" lon="1.788537">
        <ele>376.49</ele>
        <time>2020-01-11T09:27:45Z</time>
      </trkpt>
      <trkpt lat="41.679892" lon="1.787147">
        <ele>374.638</ele>
        <time>2020-01-11T09:28:13Z</time>
      </trkpt>
      <trkpt lat="41.679372" lon="1.78503">
        <ele>386.07</ele>
        <time>2020-01-11T09:29:04Z</time>
      </trkpt>
      <trkpt lat="41.679096" lon="1.784596">
        <ele>389.417</ele>
        <time>2020-01-11T09:29:15Z</time>
      </trkpt>
      <trkpt lat="41.679119" lon="1.78429">
        <ele>389.408</ele>
        <time>2020-01-11T09:29:21Z</time>
      </trkpt>
      <trkpt lat="41.678618" lon="1.784189">
        <ele>384.027</ele>
        <time>2020-01-11T09:29:36Z</time>
      </trkpt>
      <trkpt lat="41.679206" lon="1.783643">
        <ele>378.688</ele>
        <time>2020-01-11T09:29:51Z</time>
      </trkpt>
      <trkpt lat="41.68038" lon="1.780979">
        <ele>359.046</ele>
        <time>2020-01-11T09:30:11Z</time>
      </trkpt>
      <trkpt lat="41.680932" lon="1.778661">
        <ele>343.43</ele>
        <time>2020-01-11T09:30:25Z</time>
      </trkpt>
      <trkpt lat="41.681507" lon="1.777155">
        <ele>336.665</ele>
        <time>2020-01-11T09:30:35Z</time>
      </trkpt>
      <trkpt lat="41.681941" lon="1.774956">
        <ele>321.435</ele>
        <time>2020-01-11T09:30:50Z</time>
      </trkpt>
      <trkpt lat="41.682465" lon="1.774355">
        <ele>319.246</ele>
        <time>2020-01-11T09:30:57Z</time>
      </trkpt>
      <trkpt lat="41.683024" lon="1.774177">
        <ele>317.058</ele>
        <time>2020-01-11T09:31:02Z</time>
      </trkpt>
      <trkpt lat="41.684267" lon="1.774857">
        <ele>304.849</ele>
        <time>2020-01-11T09:31:12Z</time>
      </trkpt>
      <trkpt lat="41.685636" lon="1.774821">
        <ele>282.802</ele>
        <time>2020-01-11T09:31:24Z</time>
      </trkpt>
      <trkpt lat="41.686093" lon="1.774006">
        <ele>267.622</ele>
        <time>2020-01-11T09:31:42Z</time>
      </trkpt>
      <trkpt lat="41.686984" lon="1.774066">
        <ele>241.656</ele>
        <time>2014-09-27T09:17:24Z</time>
      </trkpt>
      <trkpt lat="41.686242" lon="1.774033">
        <ele>241.659</ele>
        <time>2014-09-27T09:17:39Z</time>
      </trkpt>
      <trkpt lat="41.685239" lon="1.772560">
        <ele>247.414</ele>
        <time>2014-09-27T09:18:18Z</time>
      </trkpt>
      <trkpt lat="41.685054" lon="1.771241">
        <ele>256.808</ele>
        <time>2014-09-27T09:18:50Z</time>
      </trkpt>
      <trkpt lat="41.683996" lon="1.768574">
        <ele>272.059</ele>
        <time>2014-09-27T09:20:02Z</time>
      </trkpt>
      <trkpt lat="41.682641" lon="1.769026">
        <ele>276.644</ele>
        <time>2014-09-27T09:20:46Z</time>
      </trkpt>
      <trkpt lat="41.680752" lon="1.767554">
        <ele>291.053</ele>
        <time>2014-09-27T09:22:02Z</time>
      </trkpt>
      <trkpt lat="41.680498" lon="1.766918">
        <ele>297.646</ele>
        <time>2014-09-27T09:22:28Z</time>
      </trkpt>
      <trkpt lat="41.679527" lon="1.766172">
        <ele>300.210</ele>
        <time>2014-09-27T09:23:03Z</time>
      </trkpt>
      <trkpt lat="41.678391" lon="1.766438">
        <ele>310.211</ele>
        <time>2014-09-27T09:23:43Z</time>
      </trkpt>
      <trkpt lat="41.676802" lon="1.765088">
        <ele>319.048</ele>
        <time>2014-09-27T09:24:46Z</time>
      </trkpt>
      <trkpt lat="41.675947" lon="1.765467">
        <ele>321.476</ele>
        <time>2014-09-27T09:25:13Z</time>
      </trkpt>
      <trkpt lat="41.674245" lon="1.764614">
        <ele>329.446</ele>
        <time>2014-09-27T09:26:05Z</time>
      </trkpt>
      <trkpt lat="41.673498" lon="1.764619">
        <ele>336.488</ele>
        <time>2014-09-27T09:26:30Z</time>
      </trkpt>
      <trkpt lat="41.672066" lon="1.763793">
        <ele>348.616</ele>
        <time>2014-09-27T09:27:28Z</time>
      </trkpt>
      <trkpt lat="41.671600" lon="1.763144">
        <ele>355.608</ele>
        <time>2014-09-27T09:27:59Z</time>
      </trkpt>
      <trkpt lat="41.669183" lon="1.762411">
        <ele>352.288</ele>
        <time>2014-09-27T09:31:52Z</time>
      </trkpt>
      <trkpt lat="41.669114" lon="1.761768">
        <ele>345.053</ele>
        <time>2014-09-27T09:32:21Z</time>
      </trkpt>
      <trkpt lat="41.669422" lon="1.761128">
        <ele>338.892</ele>
        <time>2014-09-27T09:32:53Z</time>
      </trkpt>
      <trkpt lat="41.669473" lon="1.760044">
        <ele>327.015</ele>
        <time>2014-09-27T09:33:31Z</time>
      </trkpt>
      <trkpt lat="41.669931" lon="1.759254">
        <ele>321.259</ele>
        <time>2014-09-27T09:34:18Z</time>
      </trkpt>
      <trkpt lat="41.669656" lon="1.757969">
        <ele>312.860</ele>
        <time>2014-09-27T09:35:05Z</time>
      </trkpt>
      <trkpt lat="41.670042" lon="1.756690">
        <ele>307.877</ele>
        <time>2014-09-27T09:35:39Z</time>
      </trkpt>
      <trkpt lat="41.669911" lon="1.756197">
        <ele>301.235</ele>
        <time>2014-09-27T09:36:01Z</time>
      </trkpt>
      <trkpt lat="41.670623" lon="1.754780">
        <ele>290.833</ele>
        <time>2014-09-27T09:36:50Z</time>
      </trkpt>
      <trkpt lat="41.670596" lon="1.753969">
        <ele>285.223</ele>
        <time>2014-09-27T09:37:10Z</time>
      </trkpt>
      <trkpt lat="41.669778" lon="1.753641">
        <ele>286.215</ele>
        <time>2014-09-27T09:37:37Z</time>
      </trkpt>
      <trkpt lat="41.668695" lon="1.753918">
        <ele>295.608</ele>
        <time>2014-09-27T09:38:24Z</time>
      </trkpt>
      <trkpt lat="41.668409" lon="1.753289">
        <ele>299.277</ele>
        <time>2014-09-27T09:39:12Z</time>
      </trkpt>
      <trkpt lat="41.667075" lon="1.752409">
        <ele>312.032</ele>
        <time>2014-09-27T09:41:24Z</time>
      </trkpt>
      <trkpt lat="41.666794" lon="1.752633">
        <ele>316.651</ele>
        <time>2014-09-27T09:41:52Z</time>
      </trkpt>
      <trkpt lat="41.664985" lon="1.751803">
        <ele>338.444</ele>
        <time>2014-09-27T09:45:16Z</time>
      </trkpt>
      <trkpt lat="41.666510" lon="1.748225">
        <ele>323.688</ele>
        <time>2014-09-27T09:47:04Z</time>
      </trkpt>
      <trkpt lat="41.667111" lon="1.747602">
        <ele>316.439</ele>
        <time>2014-09-27T09:47:30Z</time>
      </trkpt>
      <trkpt lat="41.667727" lon="1.747427">
        <ele>310.856</ele>
        <time>2014-09-27T09:47:41Z</time>
      </trkpt>
      <trkpt lat="41.668026" lon="1.746380">
        <ele>303.214</ele>
        <time>2014-09-27T09:47:59Z</time>
      </trkpt>
      <trkpt lat="41.668590" lon="1.746112">
        <ele>296.235</ele>
        <time>2014-09-27T09:48:15Z</time>
      </trkpt>
      <trkpt lat="41.667274" lon="1.743932">
        <ele>296.286</ele>
        <time>2014-09-27T09:49:07Z</time>
      </trkpt>
      <trkpt lat="41.667375" lon="1.743135">
        <ele>296.214</ele>
        <time>2014-09-27T09:49:20Z</time>
      </trkpt>
      <trkpt lat="41.666777" lon="1.742631">
        <ele>301.008</ele>
        <time>2014-09-27T09:49:40Z</time>
      </trkpt>
      <trkpt lat="41.666619" lon="1.741810">
        <ele>307.247</ele>
        <time>2014-09-27T09:50:04Z</time>
      </trkpt>
      <trkpt lat="41.665980" lon="1.742729">
        <ele>304.282</ele>
        <time>2014-09-27T09:50:30Z</time>
      </trkpt>
      <trkpt lat="41.664551" lon="1.741667">
        <ele>308.461</ele>
        <time>2014-09-27T09:51:08Z</time>
      </trkpt>
      <trkpt lat="41.663766" lon="1.741975">
        <ele>308.494</ele>
        <time>2014-09-27T09:51:25Z</time>
      </trkpt>
      <trkpt lat="41.663281" lon="1.741695">
        <ele>306.458</ele>
        <time>2014-09-27T09:51:32Z</time>
      </trkpt>
      <trkpt lat="41.663056" lon="1.740891">
        <ele>301.089</ele>
        <time>2014-09-27T09:51:40Z</time>
      </trkpt>
      <trkpt lat="41.662758" lon="1.740670">
        <ele>301.096</ele>
        <time>2014-09-27T09:51:45Z</time>
      </trkpt>
      <trkpt lat="41.662478" lon="1.741439">
        <ele>310.044</ele>
        <time>2014-09-27T09:52:10Z</time>
      </trkpt>
      <trkpt lat="41.662218" lon="1.741439">
        <ele>313.067</ele>
        <time>2014-09-27T09:52:22Z</time>
      </trkpt>
      <trkpt lat="41.660126" lon="1.739268">
        <ele>327.681</ele>
        <time>2014-09-27T09:54:03Z</time>
      </trkpt>
      <trkpt lat="41.660069" lon="1.738523">
        <ele>327.619</ele>
        <time>2014-09-27T09:54:20Z</time>
      </trkpt>
      <trkpt lat="41.659607" lon="1.737867">
        <ele>334.608</ele>
        <time>2014-09-27T09:54:52Z</time>
      </trkpt>
      <trkpt lat="41.658420" lon="1.737304">
        <ele>345.690</ele>
        <time>2014-09-27T09:55:48Z</time>
      </trkpt>
      <trkpt lat="41.657067" lon="1.736076">
        <ele>357.445</ele>
        <time>2014-09-27T09:56:51Z</time>
      </trkpt>
      <trkpt lat="41.656324" lon="1.736478">
        <ele>367.414</ele>
        <time>2014-09-27T09:57:34Z</time>
      </trkpt>
      <trkpt lat="41.656178" lon="1.736893">
        <ele>368.227</ele>
        <time>2014-09-27T09:57:51Z</time>
      </trkpt>
      <trkpt lat="41.655552" lon="1.737083">
        <ele>363.821</ele>
        <time>2014-09-27T10:01:47Z</time>
      </trkpt>
      <trkpt lat="41.655529" lon="1.735082">
        <ele>348.452</ele>
        <time>2014-09-27T10:02:11Z</time>
      </trkpt>
      <trkpt lat="41.654889" lon="1.734577">
        <ele>343.069</ele>
        <time>2014-09-27T10:02:26Z</time>
      </trkpt>
      <trkpt lat="41.656277" lon="1.733199">
        <ele>345.057</ele>
        <time>2014-09-27T10:03:12Z</time>
      </trkpt>
      <trkpt lat="41.657663" lon="1.732748">
        <ele>332.431</ele>
        <time>2014-09-27T10:03:34Z</time>
      </trkpt>
      <trkpt lat="41.656951" lon="1.731547">
        <ele>320.461</ele>
        <time>2014-09-27T10:03:55Z</time>
      </trkpt>
      <trkpt lat="41.656612" lon="1.731380">
        <ele>316.007</ele>
        <time>2014-09-27T10:04:01Z</time>
      </trkpt>
      <trkpt lat="41.655892" lon="1.732224">
        <ele>318.208</ele>
        <time>2014-09-27T10:04:29Z</time>
      </trkpt>
      <trkpt lat="41.654965" lon="1.732292">
        <ele>322.077</ele>
        <time>2014-09-27T10:05:02Z</time>
      </trkpt>
      <trkpt lat="41.653570" lon="1.731683">
        <ele>322.252</ele>
        <time>2014-09-27T10:05:38Z</time>
      </trkpt>
      <trkpt lat="41.651870" lon="1.730201">
        <ele>336.681</ele>
        <time>2014-09-27T10:06:54Z</time>
      </trkpt>
      <trkpt lat="41.651549" lon="1.730265">
        <ele>341.424</ele>
        <time>2014-09-27T10:07:12Z</time>
      </trkpt>
      <trkpt lat="41.650808" lon="1.729526">
        <ele>351.648</ele>
        <time>2014-09-27T10:08:01Z</time>
      </trkpt>
      <trkpt lat="41.650321" lon="1.730080">
        <ele>358.849</ele>
        <time>2014-09-27T10:08:38Z</time>
      </trkpt>
      <trkpt lat="41.650161" lon="1.730912">
        <ele>368.246</ele>
        <time>2014-09-27T10:09:22Z</time>
      </trkpt>
      <trkpt lat="41.649681" lon="1.731517">
        <ele>382.064</ele>
        <time>2014-09-27T10:10:14Z</time>
      </trkpt>
      <trkpt lat="41.649558" lon="1.732662">
        <ele>389.079</ele>
        <time>2014-09-27T10:11:04Z</time>
      </trkpt>
      <trkpt lat="41.648737" lon="1.732955">
        <ele>397.605</ele>
        <time>2014-09-27T10:11:50Z</time>
      </trkpt>
      <trkpt lat="41.648339" lon="1.733450">
        <ele>403.425</ele>
        <time>2014-09-27T10:12:24Z</time>
      </trkpt>
      <trkpt lat="41.647467" lon="1.733232">
        <ele>410.408</ele>
        <time>2014-09-27T10:13:14Z</time>
      </trkpt>
      <trkpt lat="41.646051" lon="1.734798">
        <ele>419.691</ele>
        <time>2014-09-27T10:14:31Z</time>
      </trkpt>
      <trkpt lat="41.645219" lon="1.734665">
        <ele>423.426</ele>
        <time>2014-09-27T10:14:58Z</time>
      </trkpt>
      <trkpt lat="41.642071" lon="1.735228">
        <ele>449.015</ele>
        <time>2014-09-27T10:17:30Z</time>
      </trkpt>
      <trkpt lat="41.640311" lon="1.734595">
        <ele>461.818</ele>
        <time>2014-09-27T10:18:56Z</time>
      </trkpt>
      <trkpt lat="41.639749" lon="1.734838">
        <ele>461.812</ele>
        <time>2014-09-27T10:23:10Z</time>
      </trkpt>
      <trkpt lat="41.639328" lon="1.734337">
        <ele>463.883</ele>
        <time>2014-09-27T10:23:37Z</time>
      </trkpt>
      <trkpt lat="41.638399" lon="1.734575">
        <ele>472.420</ele>
        <time>2014-09-27T10:24:31Z</time>
      </trkpt>
      <trkpt lat="41.637091" lon="1.733673">
        <ele>472.418</ele>
        <time>2014-09-27T10:25:18Z</time>
      </trkpt>
      <trkpt lat="41.636818" lon="1.733133">
        <ele>474.879</ele>
        <time>2014-09-27T10:25:34Z</time>
      </trkpt>
      <trkpt lat="41.636110" lon="1.732788">
        <ele>472.405</ele>
        <time>2014-09-27T10:25:50Z</time>
      </trkpt>
      <trkpt lat="41.635706" lon="1.731221">
        <ele>469.025</ele>
        <time>2014-09-27T10:26:13Z</time>
      </trkpt>
      <trkpt lat="41.635241" lon="1.730787">
        <ele>463.408</ele>
        <time>2014-09-27T10:26:28Z</time>
      </trkpt>
      <trkpt lat="41.634781" lon="1.731185">
        <ele>458.491</ele>
        <time>2014-09-27T10:26:38Z</time>
      </trkpt>
      <trkpt lat="41.634202" lon="1.730741">
        <ele>454.836</ele>
        <time>2014-09-27T10:26:51Z</time>
      </trkpt>
      <trkpt lat="41.632661" lon="1.730632">
        <ele>458.635</ele>
        <time>2014-09-27T10:27:33Z</time>
      </trkpt>
      <trkpt lat="41.632611" lon="1.730062">
        <ele>462.448</ele>
        <time>2014-09-27T10:27:55Z</time>
      </trkpt>
      <trkpt lat="41.632962" lon="1.729882">
        <ele>466.212</ele>
        <time>2014-09-27T10:28:16Z</time>
      </trkpt>
      <trkpt lat="41.633137" lon="1.729276">
        <ele>470.623</ele>
        <time>2014-09-27T10:28:40Z</time>
      </trkpt>
      <trkpt lat="41.633974" lon="1.729298">
        <ele>479.460</ele>
        <time>2014-09-27T10:29:31Z</time>
      </trkpt>
      <trkpt lat="41.633915" lon="1.727974">
        <ele>479.418</ele>
        <time>2014-09-27T10:30:01Z</time>
      </trkpt>
      <trkpt lat="41.633103" lon="1.727032">
        <ele>484.096</ele>
        <time>2014-09-27T10:30:34Z</time>
      </trkpt>
      <trkpt lat="41.633118" lon="1.726043">
        <ele>488.631</ele>
        <time>2014-09-27T10:31:03Z</time>
      </trkpt>
      <trkpt lat="41.632828" lon="1.726020">
        <ele>490.824</ele>
        <time>2014-09-27T10:31:16Z</time>
      </trkpt>
      <trkpt lat="41.632251" lon="1.726706">
        <ele>490.808</ele>
        <time>2014-09-27T10:31:36Z</time>
      </trkpt>
      <trkpt lat="41.631927" lon="1.726472">
        <ele>493.093</ele>
        <time>2014-09-27T10:31:48Z</time>
      </trkpt>
      <trkpt lat="41.631476" lon="1.726697">
        <ele>497.238</ele>
        <time>2014-09-27T10:32:46Z</time>
      </trkpt>
      <trkpt lat="41.630661" lon="1.725354">
        <ele>490.037</ele>
        <time>2014-09-27T10:33:15Z</time>
      </trkpt>
      <trkpt lat="41.630368" lon="1.722747">
        <ele>470.660</ele>
        <time>2014-09-27T10:33:47Z</time>
      </trkpt>
      <trkpt lat="41.629606" lon="1.723549">
        <ele>461.284</ele>
        <time>2014-09-27T10:34:04Z</time>
      </trkpt>
      <trkpt lat="41.629480" lon="1.722779">
        <ele>457.235</ele>
        <time>2014-09-27T10:34:17Z</time>
      </trkpt>
      <trkpt lat="41.628412" lon="1.723075">
        <ele>448.452</ele>
        <time>2014-09-27T10:34:34Z</time>
      </trkpt>
      <trkpt lat="41.629061" lon="1.722174">
        <ele>454.040</ele>
        <time>2014-09-27T10:35:14Z</time>
      </trkpt>
      <trkpt lat="41.628943" lon="1.721502">
        <ele>454.072</ele>
        <time>2014-09-27T10:35:28Z</time>
      </trkpt>
      <trkpt lat="41.628227" lon="1.720517">
        <ele>460.813</ele>
        <time>2014-09-27T10:36:03Z</time>
      </trkpt>
      <trkpt lat="41.627580" lon="1.720226">
        <ele>466.814</ele>
        <time>2014-09-27T10:36:34Z</time>
      </trkpt>
      <trkpt lat="41.628226" lon="1.719963">
        <ele>472.808</ele>
        <time>2014-09-27T10:37:08Z</time>
      </trkpt>
      <trkpt lat="41.628701" lon="1.720384">
        <ele>477.441</ele>
        <time>2014-09-27T10:37:36Z</time>
      </trkpt>
      <trkpt lat="41.629585" lon="1.720455">
        <ele>479.416</ele>
        <time>2014-09-27T10:38:16Z</time>
      </trkpt>
      <trkpt lat="41.628254" lon="1.719184">
        <ele>494.815</ele>
        <time>2014-09-27T10:39:48Z</time>
      </trkpt>
      <trkpt lat="41.627431" lon="1.718896">
        <ele>496.888</ele>
        <time>2014-09-27T10:40:29Z</time>
      </trkpt>
      <trkpt lat="41.626493" lon="1.717749">
        <ele>499.882</ele>
        <time>2014-09-27T10:41:29Z</time>
      </trkpt>
      <trkpt lat="41.625897" lon="1.717449">
        <ele>505.233</ele>
        <time>2014-09-27T10:42:03Z</time>
      </trkpt>
      <trkpt lat="41.625554" lon="1.716829">
        <ele>511.620</ele>
        <time>2014-09-27T10:42:34Z</time>
      </trkpt>
      <trkpt lat="41.625504" lon="1.716111">
        <ele>511.688</ele>
        <time>2014-09-27T10:42:56Z</time>
      </trkpt>
      <trkpt lat="41.624735" lon="1.717161">
        <ele>513.691</ele>
        <time>2014-09-27T10:43:43Z</time>
      </trkpt>
      <trkpt lat="41.623946" lon="1.717023">
        <ele>516.681</ele>
        <time>2014-09-27T10:44:20Z</time>
      </trkpt>
      <trkpt lat="41.621834" lon="1.715060">
        <ele>517.819</ele>
        <time>2014-09-27T10:47:51Z</time>
      </trkpt>
      <trkpt lat="41.621196" lon="1.714914">
        <ele>514.408</ele>
        <time>2014-09-27T10:48:00Z</time>
      </trkpt>
      <trkpt lat="41.620982" lon="1.714392">
        <ele>512.253</ele>
        <time>2014-09-27T10:48:06Z</time>
      </trkpt>
      <trkpt lat="41.620192" lon="1.713779">
        <ele>509.078</ele>
        <time>2014-09-27T10:48:20Z</time>
      </trkpt>
      <trkpt lat="41.620036" lon="1.712316">
        <ele>504.087</ele>
        <time>2014-09-27T10:48:37Z</time>
      </trkpt>
      <trkpt lat="41.619275" lon="1.711641">
        <ele>497.680</ele>
        <time>2014-09-27T10:48:49Z</time>
      </trkpt>
      <trkpt lat="41.618716" lon="1.710622">
        <ele>494.414</ele>
        <time>2014-09-27T10:49:02Z</time>
      </trkpt>
      <trkpt lat="41.618683" lon="1.709652">
        <ele>490.245</ele>
        <time>2014-09-27T10:49:14Z</time>
      </trkpt>
      <trkpt lat="41.619423" lon="1.707118">
        <ele>482.012</ele>
        <time>2014-09-27T10:49:51Z</time>
      </trkpt>
      <trkpt lat="41.618298" lon="1.707078">
        <ele>472.010</ele>
        <time>2014-09-27T10:50:13Z</time>
      </trkpt>
      <trkpt lat="41.618510" lon="1.706154">
        <ele>465.428</ele>
        <time>2014-09-27T10:50:27Z</time>
      </trkpt>
      <trkpt lat="41.618292" lon="1.704822">
        <ele>457.889</ele>
        <time>2014-09-27T10:50:47Z</time>
      </trkpt>
      <trkpt lat="41.618055" lon="1.704524">
        <ele>455.617</ele>
        <time>2014-09-27T10:50:54Z</time>
      </trkpt>
      <trkpt lat="41.618687" lon="1.702047">
        <ele>439.608</ele>
        <time>2014-09-27T10:51:23Z</time>
      </trkpt>
      <trkpt lat="41.617670" lon="1.700690">
        <ele>430.426</ele>
        <time>2014-09-27T10:51:48Z</time>
      </trkpt>
      <trkpt lat="41.617611" lon="1.699014">
        <ele>432.641</ele>
        <time>2014-09-27T10:52:14Z</time>
      </trkpt>
      <trkpt lat="41.617209" lon="1.697135">
        <ele>459.250</ele>
        <time>2014-09-27T10:56:49Z</time>
      </trkpt>
      <trkpt lat="41.616766" lon="1.696609">
        <ele>457.633</ele>
        <time>2014-09-27T10:57:05Z</time>
      </trkpt>
      <trkpt lat="41.616092" lon="1.696390">
        <ele>461.297</ele>
        <time>2014-09-27T10:57:28Z</time>
      </trkpt>
      <trkpt lat="41.615494" lon="1.695319">
        <ele>463.688</ele>
        <time>2014-09-27T10:58:13Z</time>
      </trkpt>
      <trkpt lat="41.614921" lon="1.695061">
        <ele>466.295</ele>
        <time>2014-09-27T10:58:50Z</time>
      </trkpt>
      <trkpt lat="41.613972" lon="1.693495">
        <ele>459.263</ele>
        <time>2014-09-27T10:59:39Z</time>
      </trkpt>
      <trkpt lat="41.612567" lon="1.689238">
        <ele>422.291</ele>
        <time>2014-09-27T11:03:11Z</time>
      </trkpt>
      <trkpt lat="41.611697" lon="1.688475">
        <ele>402.481</ele>
        <time>2014-09-27T11:05:21Z</time>
      </trkpt>
      <trkpt lat="41.611062" lon="1.688306">
        <ele>389.819</ele>
        <time>2014-09-27T11:06:56Z</time>
      </trkpt>
      <trkpt lat="41.611238" lon="1.687759">
        <ele>387.808</ele>
        <time>2014-09-27T11:07:25Z</time>
      </trkpt>
      <trkpt lat="41.610308" lon="1.686410">
        <ele>394.883</ele>
        <time>2014-09-27T11:08:20Z</time>
      </trkpt>
      <trkpt lat="41.610163" lon="1.684963">
        <ele>408.638</ele>
        <time>2014-09-27T11:09:29Z</time>
      </trkpt>
      <trkpt lat="41.608124" lon="1.683468">
        <ele>390.297</ele>
        <time>2014-09-27T11:10:00Z</time>
      </trkpt>
      <trkpt lat="41.605114" lon="1.681863">
        <ele>382.660</ele>
        <time>2014-09-27T11:10:52Z</time>
      </trkpt>
      <trkpt lat="41.602451" lon="1.679654">
        <ele>382.484</ele>
        <time>2014-09-27T11:11:50Z</time>
      </trkpt>
      <trkpt lat="41.600644" lon="1.679145">
        <ele>378.055</ele>
        <time>2014-09-27T11:12:24Z</time>
      </trkpt>
      <trkpt lat="41.600926" lon="1.678491">
        <ele>375.612</ele>
        <time>2014-09-27T11:12:44Z</time>
      </trkpt>
      <trkpt lat="41.600859" lon="1.676951">
        <ele>376.820</ele>
        <time>2014-09-27T11:13:16Z</time>
      </trkpt>
      <trkpt lat="41.601205" lon="1.675763">
        <ele>384.218</ele>
        <time>2014-09-27T11:13:55Z</time>
      </trkpt>
      <trkpt lat="41.600943" lon="1.674634">
        <ele>394.698</ele>
        <time>2014-09-27T11:14:37Z</time>
      </trkpt>
      <trkpt lat="41.601598" lon="1.673386">
        <ele>399.617</ele>
        <time>2014-09-27T11:15:29Z</time>
      </trkpt>
      <trkpt lat="41.600644" lon="1.671364">
        <ele>408.408</ele>
        <time>2014-09-27T11:19:33Z</time>
      </trkpt>
      <trkpt lat="41.600890" lon="1.669931">
        <ele>400.035</ele>
        <time>2014-09-27T11:19:52Z</time>
      </trkpt>
      <trkpt lat="41.600774" lon="1.668929">
        <ele>393.230</ele>
        <time>2014-09-27T11:20:03Z</time>
      </trkpt>
      <trkpt lat="41.600439" lon="1.668570">
        <ele>388.619</ele>
        <time>2014-09-27T11:20:08Z</time>
      </trkpt>
      <trkpt lat="41.599400" lon="1.665989">
        <ele>383.292</ele>
        <time>2014-09-27T11:20:43Z</time>
      </trkpt>
      <trkpt lat="41.598013" lon="1.664402">
        <ele>363.656</ele>
        <time>2014-09-27T11:21:05Z</time>
      </trkpt>
      <trkpt lat="41.598283" lon="1.663478">
        <ele>355.077</ele>
        <time>2014-09-27T11:21:16Z</time>
      </trkpt>
      <trkpt lat="41.597012" lon="1.663234">
        <ele>349.254</ele>
        <time>2014-09-27T11:21:34Z</time>
      </trkpt>
      <trkpt lat="41.596174" lon="1.662456">
        <ele>342.282</ele>
        <time>2014-09-27T11:21:46Z</time>
      </trkpt>
      <trkpt lat="41.596494" lon="1.657590">
        <ele>325.233</ele>
        <time>2014-09-27T11:22:33Z</time>
      </trkpt>
      <trkpt lat="41.597039" lon="1.656999">
        <ele>330.623</ele>
        <time>2014-09-27T11:22:50Z</time>
      </trkpt>
      <trkpt lat="41.597263" lon="1.656281">
        <ele>332.615</ele>
        <time>2014-09-27T11:23:08Z</time>
      </trkpt>
      <trkpt lat="41.598194" lon="1.655683">
        <ele>336.008</ele>
        <time>2014-09-27T11:23:39Z</time>
      </trkpt>
      <trkpt lat="41.597808" lon="1.652870">
        <ele>338.257</ele>
        <time>2014-09-27T11:24:27Z</time>
      </trkpt>
      <trkpt lat="41.600214" lon="1.650836">
        <ele>344.662</ele>
        <time>2014-09-27T11:25:37Z</time>
      </trkpt>
      <trkpt lat="41.601919" lon="1.647591">
        <ele>342.271</ele>
        <time>2014-09-27T11:26:35Z</time>
      </trkpt>
      <trkpt lat="41.600368" lon="1.646194">
        <ele>342.274</ele>
        <time>2014-09-27T11:27:13Z</time>
      </trkpt>
      <trkpt lat="41.600002" lon="1.645373">
        <ele>340.238</ele>
        <time>2014-09-27T11:27:25Z</time>
      </trkpt>
      <trkpt lat="41.598750" lon="1.643868">
        <ele>347.669</ele>
        <time>2014-09-27T11:28:03Z</time>
      </trkpt>
      <trkpt lat="41.598129" lon="1.643574">
        <ele>349.816</ele>
        <time>2014-09-27T11:28:23Z</time>
      </trkpt>
      <trkpt lat="41.598141" lon="1.640141">
        <ele>345.234</ele>
        <time>2014-09-27T11:29:34Z</time>
      </trkpt>
      <trkpt lat="41.598439" lon="1.639917">
        <ele>341.085</ele>
        <time>2014-09-27T11:29:44Z</time>
      </trkpt>
      <trkpt lat="41.597491" lon="1.639038">
        <ele>330.289</ele>
        <time>2014-09-27T11:30:16Z</time>
      </trkpt>
      <trkpt lat="41.600518" lon="1.635792">
        <ele>314.217</ele>
        <time>2014-09-27T11:31:29Z</time>
      </trkpt>
      <trkpt lat="41.598987" lon="1.635205">
        <ele>304.808</ele>
        <time>2014-09-27T11:34:25Z</time>
      </trkpt>
      <trkpt lat="41.597671" lon="1.633842">
        <ele>316.262</ele>
        <time>2014-09-27T11:34:58Z</time>
      </trkpt>
      <trkpt lat="41.594247" lon="1.628845">
        <ele>319.057</ele>
        <time>2014-09-27T11:36:41Z</time>
      </trkpt>
      <trkpt lat="41.592560" lon="1.625868">
        <ele>314.046</ele>
        <time>2014-09-27T11:37:27Z</time>
      </trkpt>
      <trkpt lat="41.591634" lon="1.622845">
        <ele>314.029</ele>
        <time>2014-09-27T11:38:17Z</time>
      </trkpt>
      <trkpt lat="41.591104" lon="1.618924">
        <ele>320.263</ele>
        <time>2014-09-27T11:40:03Z</time>
      </trkpt>
      <trkpt lat="41.591234" lon="1.616447">
        <ele>324.454</ele>
        <time>2014-09-27T11:40:51Z</time>
      </trkpt>
      <trkpt lat="41.591024" lon="1.615909">
        <ele>324.471</ele>
        <time>2014-09-27T11:41:06Z</time>
      </trkpt>
      <trkpt lat="41.587297" lon="1.614449">
        <ele>326.659</ele>
        <time>2014-09-27T11:43:43Z</time>
      </trkpt>
    </trkseg>
  </trk>
</gpx>
